sensor_id;sensor_type;location;lat;lon;timestamp;pressure;altitude;pressure_sealevel;temperature;humidity
33554;BME280;19885;42.208;24.952;2023-11-21T00:02:17;99720.66;;;6.40;90.72
33554;BME280;19885;42.208;24.952;2023-11-21T00:04:42;99726.16;;;6.57;89.85
33554;BME280;19885;42.208;24.952;2023-11-21T00:07:08;99728.47;;;6.43;90.11
33554;BME280;19885;42.208;24.952;2023-11-21T00:09:33;99732.44;;;6.26;90.75
33554;BME280;19885;42.208;24.952;2023-11-21T00:12:01;99722.81;;;6.21;91.78
33554;BME280;19885;42.208;24.952;2023-11-21T00:14:27;99724.28;;;6.50;90.98
33554;BME280;19885;42.208;24.952;2023-11-21T00:16:52;99730.06;;;6.38;90.17
33554;BME280;19885;42.208;24.952;2023-11-21T00:19:20;99731.00;;;6.40;90.90
33554;BME280;19885;42.208;24.952;2023-11-21T00:21:45;99727.91;;;6.18;90.96
33554;BME280;19885;42.208;24.952;2023-11-21T00:24:13;99727.88;;;6.16;91.12
33554;BME280;19885;42.208;24.952;2023-11-21T00:26:41;99727.53;;;6.40;90.09
33554;BME280;19885;42.208;24.952;2023-11-21T00:29:07;99720.88;;;6.53;88.92
33554;BME280;19885;42.208;24.952;2023-11-21T00:31:33;99726.03;;;6.51;89.57
33554;BME280;19885;42.208;24.952;2023-11-21T00:33:58;99731.47;;;6.63;89.75
33554;BME280;19885;42.208;24.952;2023-11-21T00:36:24;99721.31;;;6.32;89.49
33554;BME280;19885;42.208;24.952;2023-11-21T00:38:51;99714.16;;;6.20;90.97
33554;BME280;19885;42.208;24.952;2023-11-21T00:41:16;99720.16;;;5.81;92.63
33554;BME280;19885;42.208;24.952;2023-11-21T00:43:41;99713.44;;;5.53;94.25
33554;BME280;19885;42.208;24.952;2023-11-21T00:46:07;99722.66;;;5.42;94.84
33554;BME280;19885;42.208;24.952;2023-11-21T00:48:35;99720.84;;;5.38;95.61
33554;BME280;19885;42.208;24.952;2023-11-21T00:51:00;99718.50;;;5.48;94.91
33554;BME280;19885;42.208;24.952;2023-11-21T00:53:25;99708.16;;;5.47;95.03
33554;BME280;19885;42.208;24.952;2023-11-21T00:55:51;99703.75;;;5.80;94.26
33554;BME280;19885;42.208;24.952;2023-11-21T00:58:22;99711.38;;;5.74;94.91
33554;BME280;19885;42.208;24.952;2023-11-21T01:00:47;99700.03;;;6.05;92.15
33554;BME280;19885;42.208;24.952;2023-11-21T01:03:13;99710.69;;;6.18;91.47
33554;BME280;19885;42.208;24.952;2023-11-21T01:05:38;99714.25;;;6.25;90.20
33554;BME280;19885;42.208;24.952;2023-11-21T01:08:04;99706.16;;;6.08;91.87
33554;BME280;19885;42.208;24.952;2023-11-21T01:10:31;99720.97;;;6.15;91.90
33554;BME280;19885;42.208;24.952;2023-11-21T01:12:56;99725.78;;;5.64;93.58
33554;BME280;19885;42.208;24.952;2023-11-21T01:15:25;99729.88;;;5.91;92.74
33554;BME280;19885;42.208;24.952;2023-11-21T01:17:51;99726.34;;;5.86;93.31
33554;BME280;19885;42.208;24.952;2023-11-21T01:20:16;99723.31;;;6.05;92.12
33554;BME280;19885;42.208;24.952;2023-11-21T01:22:42;99723.06;;;5.93;93.06
33554;BME280;19885;42.208;24.952;2023-11-21T01:25:11;99720.59;;;5.99;92.05
33554;BME280;19885;42.208;24.952;2023-11-21T01:27:36;99720.81;;;6.08;91.21
33554;BME280;19885;42.208;24.952;2023-11-21T01:30:03;99712.34;;;6.15;91.42
33554;BME280;19885;42.208;24.952;2023-11-21T01:32:31;99716.59;;;6.13;91.48
33554;BME280;19885;42.208;24.952;2023-11-21T01:34:56;99705.38;;;6.12;92.46
33554;BME280;19885;42.208;24.952;2023-11-21T01:37:22;99709.69;;;6.12;90.79
33554;BME280;19885;42.208;24.952;2023-11-21T01:39:47;99702.63;;;6.05;90.53
33554;BME280;19885;42.208;24.952;2023-11-21T01:42:13;99706.28;;;6.14;90.01
33554;BME280;19885;42.208;24.952;2023-11-21T01:44:38;99703.97;;;5.88;91.32
33554;BME280;19885;42.208;24.952;2023-11-21T01:47:04;99710.06;;;5.91;91.93
33554;BME280;19885;42.208;24.952;2023-11-21T01:49:33;99714.41;;;5.92;91.15
33554;BME280;19885;42.208;24.952;2023-11-21T01:51:59;99709.28;;;5.94;89.74
33554;BME280;19885;42.208;24.952;2023-11-21T01:54:25;99703.41;;;6.01;90.12
33554;BME280;19885;42.208;24.952;2023-11-21T01:56:50;99697.91;;;5.86;91.24
33554;BME280;19885;42.208;24.952;2023-11-21T02:01:17;99696.09;;;5.83;91.92
33554;BME280;19885;42.208;24.952;2023-11-21T02:03:44;99685.91;;;5.89;91.76
33554;BME280;19885;42.208;24.952;2023-11-21T02:06:09;99680.47;;;5.78;90.56
33554;BME280;19885;42.208;24.952;2023-11-21T02:08:34;99694.31;;;5.82;90.07
33554;BME280;19885;42.208;24.952;2023-11-21T02:11:02;99699.28;;;5.73;92.47
33554;BME280;19885;42.208;24.952;2023-11-21T02:13:33;99702.13;;;5.84;90.94
33554;BME280;19885;42.208;24.952;2023-11-21T02:15:58;99690.97;;;5.85;91.32
33554;BME280;19885;42.208;24.952;2023-11-21T02:18:24;99684.09;;;5.85;92.03
33554;BME280;19885;42.208;24.952;2023-11-21T02:20:53;99692.75;;;5.87;90.94
33554;BME280;19885;42.208;24.952;2023-11-21T02:23:18;99689.44;;;5.93;91.92
33554;BME280;19885;42.208;24.952;2023-11-21T02:25:46;99693.75;;;5.94;90.40
33554;BME280;19885;42.208;24.952;2023-11-21T02:28:12;99697.94;;;5.89;90.09
33554;BME280;19885;42.208;24.952;2023-11-21T02:30:40;99709.56;;;5.70;90.23
33554;BME280;19885;42.208;24.952;2023-11-21T02:33:06;99703.34;;;5.63;92.35
33554;BME280;19885;42.208;24.952;2023-11-21T02:35:32;99708.59;;;5.65;92.67
33554;BME280;19885;42.208;24.952;2023-11-21T02:37:57;99705.63;;;5.50;92.55
33554;BME280;19885;42.208;24.952;2023-11-21T02:40:22;99697.38;;;5.66;91.75
33554;BME280;19885;42.208;24.952;2023-11-21T02:42:50;99702.13;;;5.48;92.50
33554;BME280;19885;42.208;24.952;2023-11-21T02:45:16;99701.50;;;5.56;92.10
33554;BME280;19885;42.208;24.952;2023-11-21T02:47:42;99690.97;;;5.49;91.43
33554;BME280;19885;42.208;24.952;2023-11-21T02:50:11;99706.44;;;5.47;93.31
33554;BME280;19885;42.208;24.952;2023-11-21T02:52:36;99702.78;;;5.39;93.92
33554;BME280;19885;42.208;24.952;2023-11-21T02:55:05;99716.13;;;5.22;94.90
33554;BME280;19885;42.208;24.952;2023-11-21T02:57:32;99708.19;;;5.50;93.55
33554;BME280;19885;42.208;24.952;2023-11-21T03:00:01;99705.03;;;5.61;92.88
33554;BME280;19885;42.208;24.952;2023-11-21T03:02:26;99704.78;;;5.51;93.08
33554;BME280;19885;42.208;24.952;2023-11-21T03:04:51;99708.72;;;5.35;93.50
33554;BME280;19885;42.208;24.952;2023-11-21T03:07:17;99711.72;;;5.18;93.99
33554;BME280;19885;42.208;24.952;2023-11-21T03:09:47;99711.38;;;5.04;94.68
33554;BME280;19885;42.208;24.952;2023-11-21T03:12:12;99710.28;;;4.63;96.45
33554;BME280;19885;42.208;24.952;2023-11-21T03:14:39;99708.78;;;5.04;94.98
33554;BME280;19885;42.208;24.952;2023-11-21T03:17:05;99712.63;;;4.87;94.34
33554;BME280;19885;42.208;24.952;2023-11-21T03:19:30;99705.94;;;4.62;96.42
33554;BME280;19885;42.208;24.952;2023-11-21T03:21:56;99704.41;;;4.39;97.47
33554;BME280;19885;42.208;24.952;2023-11-21T03:24:21;99699.78;;;4.27;97.61
33554;BME280;19885;42.208;24.952;2023-11-21T03:26:47;99698.03;;;4.56;96.36
33554;BME280;19885;42.208;24.952;2023-11-21T03:29:13;99701.00;;;4.70;95.39
33554;BME280;19885;42.208;24.952;2023-11-21T03:31:39;99699.72;;;4.87;94.26
33554;BME280;19885;42.208;24.952;2023-11-21T03:34:09;99698.53;;;4.74;94.60
33554;BME280;19885;42.208;24.952;2023-11-21T03:36:34;99708.47;;;4.92;94.34
33554;BME280;19885;42.208;24.952;2023-11-21T03:39:04;99701.38;;;4.85;94.49
33554;BME280;19885;42.208;24.952;2023-11-21T03:41:30;99698.69;;;4.80;95.20
33554;BME280;19885;42.208;24.952;2023-11-21T03:43:55;99695.97;;;4.76;94.81
33554;BME280;19885;42.208;24.952;2023-11-21T03:46:20;99697.09;;;4.85;95.16
33554;BME280;19885;42.208;24.952;2023-11-21T03:48:46;99700.56;;;4.86;94.72
33554;BME280;19885;42.208;24.952;2023-11-21T03:51:11;99702.66;;;4.68;94.97
33554;BME280;19885;42.208;24.952;2023-11-21T03:53:39;99707.06;;;4.41;95.76
33554;BME280;19885;42.208;24.952;2023-11-21T03:56:07;99710.66;;;3.89;98.22
33554;BME280;19885;42.208;24.952;2023-11-21T03:58:32;99706.44;;;4.19;97.96
33554;BME280;19885;42.208;24.952;2023-11-21T04:00:58;99713.81;;;4.37;97.44
33554;BME280;19885;42.208;24.952;2023-11-21T04:03:23;99716.13;;;4.58;97.02
33554;BME280;19885;42.208;24.952;2023-11-21T04:05:48;99717.75;;;4.54;96.25
33554;BME280;19885;42.208;24.952;2023-11-21T04:08:19;99717.53;;;4.47;96.75
33554;BME280;19885;42.208;24.952;2023-11-21T04:10:45;99722.16;;;4.58;96.59
33554;BME280;19885;42.208;24.952;2023-11-21T04:13:13;99727.84;;;4.47;96.19
33554;BME280;19885;42.208;24.952;2023-11-21T04:15:39;99723.19;;;4.65;96.19
33554;BME280;19885;42.208;24.952;2023-11-21T04:18:04;99721.66;;;4.12;96.81
33554;BME280;19885;42.208;24.952;2023-11-21T04:20:32;99712.38;;;4.17;98.46
33554;BME280;19885;42.208;24.952;2023-11-21T04:23:00;99721.44;;;4.34;97.67
33554;BME280;19885;42.208;24.952;2023-11-21T04:25:25;99722.78;;;4.50;96.82
33554;BME280;19885;42.208;24.952;2023-11-21T04:27:50;99722.78;;;4.50;96.48
33554;BME280;19885;42.208;24.952;2023-11-21T04:30:16;99722.94;;;4.56;97.00
33554;BME280;19885;42.208;24.952;2023-11-21T04:32:41;99725.69;;;4.62;95.36
33554;BME280;19885;42.208;24.952;2023-11-21T04:35:09;99720.97;;;4.17;96.42
33554;BME280;19885;42.208;24.952;2023-11-21T04:37:35;99724.59;;;4.24;97.33
33554;BME280;19885;42.208;24.952;2023-11-21T04:40:02;99725.03;;;4.39;96.49
33554;BME280;19885;42.208;24.952;2023-11-21T04:42:32;99726.03;;;4.43;96.44
33554;BME280;19885;42.208;24.952;2023-11-21T04:45:04;99732.19;;;3.63;99.88
33554;BME280;19885;42.208;24.952;2023-11-21T04:47:33;99727.69;;;3.31;100.00
33554;BME280;19885;42.208;24.952;2023-11-21T04:49:59;99729.34;;;3.29;100.00
33554;BME280;19885;42.208;24.952;2023-11-21T04:52:24;99724.50;;;2.87;100.00
33554;BME280;19885;42.208;24.952;2023-11-21T04:54:49;99734.19;;;2.95;100.00
33554;BME280;19885;42.208;24.952;2023-11-21T04:57:15;99742.97;;;3.51;100.00
33554;BME280;19885;42.208;24.952;2023-11-21T04:59:43;99739.06;;;3.37;100.00
33554;BME280;19885;42.208;24.952;2023-11-21T05:02:11;99734.34;;;3.24;100.00
33554;BME280;19885;42.208;24.952;2023-11-21T05:04:37;99743.47;;;3.68;100.00
33554;BME280;19885;42.208;24.952;2023-11-21T05:07:02;99750.09;;;3.60;100.00
33554;BME280;19885;42.208;24.952;2023-11-21T05:09:28;99745.28;;;3.19;100.00
33554;BME280;19885;42.208;24.952;2023-11-21T05:11:56;99746.91;;;3.67;100.00
33554;BME280;19885;42.208;24.952;2023-11-21T05:14:22;99748.69;;;3.96;100.00
33554;BME280;19885;42.208;24.952;2023-11-21T05:16:47;99754.28;;;4.11;99.98
33554;BME280;19885;42.208;24.952;2023-11-21T05:19:13;99766.38;;;4.12;100.00
33554;BME280;19885;42.208;24.952;2023-11-21T05:21:38;99750.53;;;4.28;99.97
33554;BME280;19885;42.208;24.952;2023-11-21T05:24:04;99750.84;;;4.39;99.42
33554;BME280;19885;42.208;24.952;2023-11-21T05:26:31;99750.81;;;4.38;98.82
33554;BME280;19885;42.208;24.952;2023-11-21T05:28:57;99745.00;;;4.45;99.63
33554;BME280;19885;42.208;24.952;2023-11-21T05:31:25;99743.16;;;4.41;99.29
33554;BME280;19885;42.208;24.952;2023-11-21T05:33:52;99747.75;;;4.51;99.96
33554;BME280;19885;42.208;24.952;2023-11-21T05:36:18;99735.22;;;4.64;99.82
33554;BME280;19885;42.208;24.952;2023-11-21T05:38:43;99741.38;;;4.69;98.15
33554;BME280;19885;42.208;24.952;2023-11-21T05:41:09;99736.56;;;4.81;97.76
33554;BME280;19885;42.208;24.952;2023-11-21T05:43:38;99746.66;;;4.72;98.52
33554;BME280;19885;42.208;24.952;2023-11-21T05:46:04;99753.09;;;4.88;98.59
33554;BME280;19885;42.208;24.952;2023-11-21T05:48:29;99756.00;;;5.00;97.64
33554;BME280;19885;42.208;24.952;2023-11-21T05:50:55;99749.84;;;4.95;97.61
33554;BME280;19885;42.208;24.952;2023-11-21T05:53:20;99744.94;;;5.04;98.10
33554;BME280;19885;42.208;24.952;2023-11-21T05:55:46;99739.13;;;5.13;98.00
33554;BME280;19885;42.208;24.952;2023-11-21T05:58:13;99747.97;;;4.58;99.89
33554;BME280;19885;42.208;24.952;2023-11-21T06:00:40;99746.25;;;4.29;100.00
33554;BME280;19885;42.208;24.952;2023-11-21T06:03:06;99757.56;;;4.34;100.00
33554;BME280;19885;42.208;24.952;2023-11-21T06:05:33;99752.41;;;4.64;100.00
33554;BME280;19885;42.208;24.952;2023-11-21T06:07:58;99761.66;;;4.87;100.00
33554;BME280;19885;42.208;24.952;2023-11-21T06:10:24;99759.84;;;4.83;100.00
33554;BME280;19885;42.208;24.952;2023-11-21T06:12:49;99758.53;;;4.67;100.00
33554;BME280;19885;42.208;24.952;2023-11-21T06:15:15;99757.81;;;4.73;100.00
33554;BME280;19885;42.208;24.952;2023-11-21T06:17:41;99758.16;;;4.25;100.00
33554;BME280;19885;42.208;24.952;2023-11-21T06:20:08;99759.34;;;4.37;100.00
33554;BME280;19885;42.208;24.952;2023-11-21T06:22:39;99761.25;;;4.72;100.00
33554;BME280;19885;42.208;24.952;2023-11-21T06:25:05;99761.63;;;4.54;100.00
33554;BME280;19885;42.208;24.952;2023-11-21T06:27:36;99760.53;;;4.77;100.00
33554;BME280;19885;42.208;24.952;2023-11-21T06:30:02;99766.97;;;4.93;100.00
33554;BME280;19885;42.208;24.952;2023-11-21T06:32:28;99768.22;;;5.38;100.00
33554;BME280;19885;42.208;24.952;2023-11-21T06:34:55;99768.91;;;5.65;100.00
33554;BME280;19885;42.208;24.952;2023-11-21T06:37:20;99774.81;;;5.61;100.00
33554;BME280;19885;42.208;24.952;2023-11-21T06:39:49;99763.91;;;5.73;100.00
33554;BME280;19885;42.208;24.952;2023-11-21T06:42:14;99770.94;;;5.78;100.00
33554;BME280;19885;42.208;24.952;2023-11-21T06:44:40;99767.00;;;6.30;100.00
33554;BME280;19885;42.208;24.952;2023-11-21T06:47:06;99769.09;;;6.09;100.00
33554;BME280;19885;42.208;24.952;2023-11-21T06:49:32;99764.59;;;6.39;100.00
33554;BME280;19885;42.208;24.952;2023-11-21T06:51:57;99775.59;;;6.68;100.00
33554;BME280;19885;42.208;24.952;2023-11-21T06:54:26;99763.53;;;7.14;97.71
33554;BME280;19885;42.208;24.952;2023-11-21T06:56:51;99762.00;;;7.26;96.48
33554;BME280;19885;42.208;24.952;2023-11-21T06:59:18;99766.69;;;7.45;95.78
33554;BME280;19885;42.208;24.952;2023-11-21T07:01:43;99765.81;;;7.44;95.88
33554;BME280;19885;42.208;24.952;2023-11-21T07:04:09;99766.94;;;7.58;95.43
33554;BME280;19885;42.208;24.952;2023-11-21T07:06:35;99760.56;;;7.93;96.34
33554;BME280;19885;42.208;24.952;2023-11-21T07:09:00;99755.78;;;8.21;94.91
33554;BME280;19885;42.208;24.952;2023-11-21T07:11:26;99759.66;;;8.47;93.17
33554;BME280;19885;42.208;24.952;2023-11-21T07:13:52;99753.22;;;8.88;92.22
33554;BME280;19885;42.208;24.952;2023-11-21T07:16:17;99760.28;;;8.97;90.99
33554;BME280;19885;42.208;24.952;2023-11-21T07:18:43;99762.78;;;8.88;90.09
33554;BME280;19885;42.208;24.952;2023-11-21T07:21:09;99759.66;;;9.19;90.03
33554;BME280;19885;42.208;24.952;2023-11-21T07:23:37;99761.53;;;9.35;88.76
33554;BME280;19885;42.208;24.952;2023-11-21T07:26:02;99759.56;;;9.10;90.54
33554;BME280;19885;42.208;24.952;2023-11-21T07:28:28;99752.22;;;8.77;93.52
33554;BME280;19885;42.208;24.952;2023-11-21T07:30:54;99757.69;;;8.97;92.66
33554;BME280;19885;42.208;24.952;2023-11-21T07:33:19;99757.31;;;8.67;94.00
33554;BME280;19885;42.208;24.952;2023-11-21T07:35:45;99756.22;;;9.23;91.17
33554;BME280;19885;42.208;24.952;2023-11-21T07:38:10;99759.31;;;9.76;91.62
33554;BME280;19885;42.208;24.952;2023-11-21T07:40:35;99742.50;;;10.56;90.09
33554;BME280;19885;42.208;24.952;2023-11-21T07:43:01;99755.69;;;10.97;82.67
33554;BME280;19885;42.208;24.952;2023-11-21T07:45:26;99761.03;;;11.47;82.24
33554;BME280;19885;42.208;24.952;2023-11-21T07:47:53;99752.38;;;11.77;78.82
33554;BME280;19885;42.208;24.952;2023-11-21T07:50:19;99751.47;;;12.06;79.39
33554;BME280;19885;42.208;24.952;2023-11-21T07:52:45;99755.84;;;11.71;76.31
33554;BME280;19885;42.208;24.952;2023-11-21T07:55:10;99767.06;;;11.25;80.08
33554;BME280;19885;42.208;24.952;2023-11-21T07:57:36;99745.44;;;11.79;80.65
33554;BME280;19885;42.208;24.952;2023-11-21T08:00:02;99756.69;;;12.22;79.73
33554;BME280;19885;42.208;24.952;2023-11-21T08:02:28;99761.97;;;11.76;75.78
33554;BME280;19885;42.208;24.952;2023-11-21T08:04:54;99763.69;;;11.98;75.57
33554;BME280;19885;42.208;24.952;2023-11-21T08:07:21;99762.75;;;12.49;77.64
33554;BME280;19885;42.208;24.952;2023-11-21T08:09:47;99760.78;;;13.03;74.32
33554;BME280;19885;42.208;24.952;2023-11-21T08:12:15;99765.88;;;13.33;71.78
33554;BME280;19885;42.208;24.952;2023-11-21T08:14:40;99754.56;;;13.31;70.28
33554;BME280;19885;42.208;24.952;2023-11-21T08:17:05;99755.41;;;13.33;72.38
33554;BME280;19885;42.208;24.952;2023-11-21T08:19:31;99748.88;;;13.87;70.49
33554;BME280;19885;42.208;24.952;2023-11-21T08:21:58;99747.16;;;13.84;68.35
33554;BME280;19885;42.208;24.952;2023-11-21T08:24:24;99749.31;;;13.28;68.91
33554;BME280;19885;42.208;24.952;2023-11-21T08:26:49;99752.94;;;13.00;71.72
33554;BME280;19885;42.208;24.952;2023-11-21T08:29:15;99752.78;;;13.34;71.01
33554;BME280;19885;42.208;24.952;2023-11-21T08:31:43;99753.31;;;13.80;72.62
33554;BME280;19885;42.208;24.952;2023-11-21T08:34:11;99755.09;;;13.72;70.49
33554;BME280;19885;42.208;24.952;2023-11-21T08:36:42;99755.03;;;13.84;70.10
33554;BME280;19885;42.208;24.952;2023-11-21T08:39:08;99753.34;;;13.76;69.76
33554;BME280;19885;42.208;24.952;2023-11-21T08:41:34;99742.78;;;13.86;67.70
33554;BME280;19885;42.208;24.952;2023-11-21T08:43:59;99741.38;;;14.45;68.05
33554;BME280;19885;42.208;24.952;2023-11-21T08:46:25;99737.19;;;14.24;65.77
33554;BME280;19885;42.208;24.952;2023-11-21T08:48:51;99727.53;;;14.31;66.82
33554;BME280;19885;42.208;24.952;2023-11-21T08:51:17;99725.34;;;13.82;67.31
33554;BME280;19885;42.208;24.952;2023-11-21T08:53:43;99727.06;;;13.86;67.85
33554;BME280;19885;42.208;24.952;2023-11-21T08:56:12;99723.34;;;14.10;66.59
33554;BME280;19885;42.208;24.952;2023-11-21T08:58:38;99716.09;;;14.36;65.66
33554;BME280;19885;42.208;24.952;2023-11-21T09:01:04;99710.81;;;14.41;64.42
33554;BME280;19885;42.208;24.952;2023-11-21T09:03:29;99707.31;;;14.40;65.51
33554;BME280;19885;42.208;24.952;2023-11-21T09:05:54;99695.88;;;14.49;70.28
33554;BME280;19885;42.208;24.952;2023-11-21T09:08:20;99699.41;;;14.46;65.44
33554;BME280;19885;42.208;24.952;2023-11-21T09:10:47;99694.13;;;14.48;67.12
33554;BME280;19885;42.208;24.952;2023-11-21T09:13:12;99686.16;;;14.57;66.28
33554;BME280;19885;42.208;24.952;2023-11-21T09:15:43;99677.13;;;14.80;64.82
33554;BME280;19885;42.208;24.952;2023-11-21T09:18:14;99677.47;;;14.52;64.40
33554;BME280;19885;42.208;24.952;2023-11-21T09:20:40;99678.66;;;13.31;68.14
33554;BME280;19885;42.208;24.952;2023-11-21T09:23:05;99667.81;;;13.76;66.02
33554;BME280;19885;42.208;24.952;2023-11-21T09:25:32;99672.66;;;14.12;68.24
33554;BME280;19885;42.208;24.952;2023-11-21T09:27:57;99674.91;;;14.47;63.22
33554;BME280;19885;42.208;24.952;2023-11-21T09:30:23;99665.00;;;14.72;64.81
33554;BME280;19885;42.208;24.952;2023-11-21T09:32:50;99670.91;;;14.87;64.09
33554;BME280;19885;42.208;24.952;2023-11-21T09:35:15;99662.13;;;14.90;63.69
33554;BME280;19885;42.208;24.952;2023-11-21T09:37:42;99660.28;;;14.95;63.28
33554;BME280;19885;42.208;24.952;2023-11-21T09:40:09;99652.34;;;15.01;61.15
33554;BME280;19885;42.208;24.952;2023-11-21T09:45:21;99645.69;;;15.34;61.41
33554;BME280;19885;42.208;24.952;2023-11-21T09:47:49;99641.63;;;15.13;59.59
33554;BME280;19885;42.208;24.952;2023-11-21T09:50:17;99655.72;;;15.06;60.36
33554;BME280;19885;42.208;24.952;2023-11-21T09:55:13;99654.75;;;15.13;58.21
33554;BME280;19885;42.208;24.952;2023-11-21T09:57:41;99641.69;;;15.10;60.26
33554;BME280;19885;42.208;24.952;2023-11-21T10:00:06;99643.97;;;15.33;60.33
33554;BME280;19885;42.208;24.952;2023-11-21T10:02:36;99631.91;;;14.62;62.77
33554;BME280;19885;42.208;24.952;2023-11-21T10:05:03;99630.56;;;14.24;64.04
33554;BME280;19885;42.208;24.952;2023-11-21T10:07:29;99623.81;;;14.77;63.59
33554;BME280;19885;42.208;24.952;2023-11-21T10:09:56;99620.00;;;14.34;60.22
33554;BME280;19885;42.208;24.952;2023-11-21T10:12:22;99618.75;;;14.65;63.48
33554;BME280;19885;42.208;24.952;2023-11-21T10:14:49;99611.91;;;15.11;62.73
33554;BME280;19885;42.208;24.952;2023-11-21T10:17:18;99595.94;;;15.26;60.70
33554;BME280;19885;42.208;24.952;2023-11-21T10:19:46;99588.13;;;14.67;58.64
33554;BME280;19885;42.208;24.952;2023-11-21T10:22:12;99577.91;;;15.05;61.26
33554;BME280;19885;42.208;24.952;2023-11-21T10:24:41;99580.13;;;14.76;59.81
33554;BME280;19885;42.208;24.952;2023-11-21T10:27:08;99578.72;;;14.51;60.84
33554;BME280;19885;42.208;24.952;2023-11-21T10:29:33;99573.22;;;14.69;58.86
33554;BME280;19885;42.208;24.952;2023-11-21T10:32:03;99571.81;;;14.44;60.37
33554;BME280;19885;42.208;24.952;2023-11-21T10:34:30;99570.06;;;14.43;59.84
33554;BME280;19885;42.208;24.952;2023-11-21T10:36:56;99565.88;;;14.33;60.12
33554;BME280;19885;42.208;24.952;2023-11-21T10:39:23;99569.56;;;14.13;60.46
33554;BME280;19885;42.208;24.952;2023-11-21T10:41:52;99561.38;;;14.42;59.80
33554;BME280;19885;42.208;24.952;2023-11-21T10:44:18;99554.97;;;14.63;61.41
33554;BME280;19885;42.208;24.952;2023-11-21T10:46:49;99559.78;;;14.31;60.71
33554;BME280;19885;42.208;24.952;2023-11-21T10:49:22;99550.06;;;14.95;61.48
33554;BME280;19885;42.208;24.952;2023-11-21T10:51:50;99546.47;;;15.00;61.63
33554;BME280;19885;42.208;24.952;2023-11-21T10:54:19;99538.97;;;15.30;60.40
33554;BME280;19885;42.208;24.952;2023-11-21T10:56:45;99538.84;;;15.36;60.07
33554;BME280;19885;42.208;24.952;2023-11-21T10:59:11;99538.91;;;15.34;59.60
33554;BME280;19885;42.208;24.952;2023-11-21T11:01:40;99546.31;;;15.61;59.98
33554;BME280;19885;42.208;24.952;2023-11-21T11:04:08;99546.16;;;15.69;60.62
33554;BME280;19885;42.208;24.952;2023-11-21T11:06:40;99544.56;;;15.62;58.88
33554;BME280;19885;42.208;24.952;2023-11-21T11:09:06;99528.75;;;15.13;57.86
33554;BME280;19885;42.208;24.952;2023-11-21T11:11:33;99532.63;;;15.44;56.98
33554;BME280;19885;42.208;24.952;2023-11-21T11:13:58;99524.03;;;15.33;57.03
33554;BME280;19885;42.208;24.952;2023-11-21T11:16:25;99525.47;;;15.52;58.97
33554;BME280;19885;42.208;24.952;2023-11-21T11:18:56;99526.38;;;15.51;58.09
33554;BME280;19885;42.208;24.952;2023-11-21T11:21:30;99515.88;;;15.51;58.21
33554;BME280;19885;42.208;24.952;2023-11-21T11:24:17;99508.91;;;15.49;58.76
33554;BME280;19885;42.208;24.952;2023-11-21T11:34:19;99493.91;;;15.55;58.70
33554;BME280;19885;42.208;24.952;2023-11-21T11:36:52;99484.88;;;15.68;58.62
33554;BME280;19885;42.208;24.952;2023-11-21T11:39:54;99468.09;;;15.76;59.21
33554;BME280;19885;42.208;24.952;2023-11-21T11:42:14;99468.22;;;15.68;59.59
33554;BME280;19885;42.208;24.952;2023-11-21T11:50:02;99438.84;;;15.51;58.39
33554;BME280;19885;42.208;24.952;2023-11-21T11:55:10;99431.06;;;15.43;61.70
33554;BME280;19885;42.208;24.952;2023-11-21T11:57:36;99422.84;;;15.17;62.82
33554;BME280;19885;42.208;24.952;2023-11-21T12:00:17;99412.44;;;15.13;62.42
33554;BME280;19885;42.208;24.952;2023-11-21T12:02:48;99424.09;;;14.96;61.48
33554;BME280;19885;42.208;24.952;2023-11-21T12:05:20;99426.59;;;15.02;62.92
33554;BME280;19885;42.208;24.952;2023-11-21T12:07:49;99420.47;;;15.04;64.23
33554;BME280;19885;42.208;24.952;2023-11-21T12:10:18;99414.63;;;14.88;65.92
33554;BME280;19885;42.208;24.952;2023-11-21T12:12:47;99411.69;;;15.05;64.83
33554;BME280;19885;42.208;24.952;2023-11-21T12:15:13;99404.66;;;15.07;64.73
33554;BME280;19885;42.208;24.952;2023-11-21T12:17:39;99400.16;;;15.13;64.75
33554;BME280;19885;42.208;24.952;2023-11-21T12:20:05;99407.19;;;15.11;64.43
33554;BME280;19885;42.208;24.952;2023-11-21T12:22:49;99412.44;;;15.11;65.03
33554;BME280;19885;42.208;24.952;2023-11-21T12:25:15;99406.47;;;15.03;65.57
33554;BME280;19885;42.208;24.952;2023-11-21T12:27:45;99413.47;;;15.02;66.62
33554;BME280;19885;42.208;24.952;2023-11-21T12:30:11;99412.88;;;14.88;64.82
33554;BME280;19885;42.208;24.952;2023-11-21T12:32:42;99411.56;;;14.63;65.51
33554;BME280;19885;42.208;24.952;2023-11-21T12:35:11;99408.81;;;14.71;65.55
33554;BME280;19885;42.208;24.952;2023-11-21T12:37:40;99395.50;;;14.83;66.93
33554;BME280;19885;42.208;24.952;2023-11-21T12:40:08;99399.94;;;14.78;67.01
33554;BME280;19885;42.208;24.952;2023-11-21T12:42:36;99397.41;;;14.73;67.80
33554;BME280;19885;42.208;24.952;2023-11-21T12:45:09;99402.44;;;14.84;66.86
33554;BME280;19885;42.208;24.952;2023-11-21T12:47:39;99405.88;;;14.89;66.81
33554;BME280;19885;42.208;24.952;2023-11-21T12:50:05;99401.75;;;14.74;64.95
33554;BME280;19885;42.208;24.952;2023-11-21T12:52:39;99400.56;;;14.92;65.67
33554;BME280;19885;42.208;24.952;2023-11-21T12:55:05;99396.94;;;14.99;66.77
33554;BME280;19885;42.208;24.952;2023-11-21T12:57:33;99396.78;;;15.08;66.28
33554;BME280;19885;42.208;24.952;2023-11-21T12:59:59;99389.81;;;15.04;66.03
33554;BME280;19885;42.208;24.952;2023-11-21T13:02:29;99386.28;;;15.08;66.43
33554;BME280;19885;42.208;24.952;2023-11-21T13:04:56;99373.97;;;15.10;66.60
33554;BME280;19885;42.208;24.952;2023-11-21T13:07:23;99353.97;;;15.05;67.16
33554;BME280;19885;42.208;24.952;2023-11-21T13:09:52;99344.56;;;14.93;66.45
33554;BME280;19885;42.208;24.952;2023-11-21T13:12:23;99341.25;;;14.83;67.79
33554;BME280;19885;42.208;24.952;2023-11-21T13:14:51;99360.44;;;14.87;67.53
33554;BME280;19885;42.208;24.952;2023-11-21T13:17:17;99363.28;;;14.75;66.42